Time;durP1;ratioP1;P1;durP2;ratioP2;P2;SDS_P1;SDS_P2;PMS_P1;PMS_P2;Temp;Humidity;BMP_temperature;BMP_pressure;BME280_temperature;BME280_humidity;BME280_pressure;Samples;Min_cycle;Max_cycle;Signal;HPM_P1;HPM_P2
2021/03/09 00:02:21;;;;;;;;;;;5.40;51.60;;;;;;5104802;28;19981;-72
2021/03/09 00:04:47;;;;;;;;;;;5.40;51.90;;;;;;5093952;28;20061;-72
2021/03/09 00:07:13;;;;;;;;;;;5.40;51.90;;;;;;5094070;28;19959;-73
2021/03/09 00:09:39;;;;;;;;;;;5.40;51.60;;;;;;5094607;28;20019;-73
2021/03/09 00:12:06;;;;;;;;;;;5.40;51.60;;;;;;5096501;28;20018;-73
2021/03/09 00:14:33;;;;;;;;;;;5.40;51.30;;;;;;5106611;28;20312;-72
2021/03/09 00:17:00;;;;;;;;;;;5.40;50.80;;;;;;5114345;28;19967;-73
2021/03/09 00:19:26;;;;;;;;;;;5.30;50.70;;;;;;5114695;28;20022;-73
2021/03/09 00:21:52;;;;;;;;;;;5.30;50.70;;;;;;5114313;28;20014;-72
2021/03/09 00:24:18;;;;;;;;;;;5.20;50.80;;;;;;5114692;28;20018;-73
2021/03/09 00:26:44;;;;;;;;;;;5.30;50.70;;;;;;5114512;28;20018;-73
2021/03/09 00:29:11;;;;;;;;;;;5.20;50.30;;;;;;5114138;28;20023;-73
2021/03/09 00:31:38;;;;;;;;;;;5.20;50.40;;;;;;5114375;28;20093;-73
2021/03/09 00:34:04;;;;;;;;;;;5.20;50.60;;;;;;5114073;28;20409;-73
2021/03/09 00:36:30;;;;;;;;;;;5.20;50.80;;;;;;5114235;28;20409;-73
2021/03/09 00:38:56;;;;;;;;;;;5.20;50.80;;;;;;5114046;28;20011;-73
2021/03/09 00:41:23;;;;;;;;;;;5.20;51.00;;;;;;5114577;28;20381;-73
2021/03/09 00:43:49;;;;;;;;;;;5.20;50.90;;;;;;5113803;28;20014;-73
2021/03/09 00:46:15;;;;;;;;;;;5.20;50.70;;;;;;5113626;28;20080;-73
2021/03/09 00:48:42;;;;;;;;;;;5.20;50.80;;;;;;5114311;28;20039;-73
2021/03/09 00:51:09;;;;;;;;;;;5.20;51.00;;;;;;5113417;28;20018;-73
2021/03/09 00:53:35;;;;;;;;;;;5.10;51.20;;;;;;5134589;27;20072;-73
2021/03/09 00:56:02;;;;;;;;;;;5.10;51.20;;;;;;5122960;27;20015;-73
2021/03/09 00:58:28;;;;;;;;;;;5.10;51.10;;;;;;5113862;28;20085;-73
2021/03/09 01:00:54;;;;;;;;;;;5.10;51.10;;;;;;5112602;28;20006;-73
2021/03/09 01:03:21;;;;;;;;;;;5.10;51.20;;;;;;5113947;28;20339;-74
2021/03/09 01:05:48;;;;;;;;;;;5.10;51.10;;;;;;5114068;28;20022;-73
2021/03/09 01:08:15;;;;;;;;;;;5.10;51.00;;;;;;5112461;28;20015;-73
2021/03/09 01:10:41;;;;;;;;;;;5.00;51.00;;;;;;5113711;28;19955;-73
2021/03/09 01:13:07;;;;;;;;;;;5.00;51.00;;;;;;5113031;28;20015;-73
2021/03/09 01:15:33;;;;;;;;;;;4.90;51.10;;;;;;5113677;28;20410;-73
2021/03/09 01:18:00;;;;;;;;;;;4.80;51.20;;;;;;5112963;28;19939;-73
2021/03/09 01:20:27;;;;;;;;;;;4.80;51.40;;;;;;5113479;28;19965;-73
2021/03/09 01:22:54;;;;;;;;;;;4.90;51.70;;;;;;5113492;28;19935;-73
2021/03/09 01:25:20;;;;;;;;;;;4.90;51.80;;;;;;5112975;28;19971;-73
2021/03/09 01:27:46;;;;;;;;;;;4.90;51.80;;;;;;5113438;28;19999;-73
2021/03/09 01:30:13;;;;;;;;;;;4.90;51.90;;;;;;5112882;28;20002;-73
2021/03/09 01:32:40;;;;;;;;;;;5.00;52.00;;;;;;5112590;28;20010;-73
2021/03/09 01:35:07;;;;;;;;;;;5.00;52.10;;;;;;5113010;28;20014;-73
2021/03/09 01:37:33;;;;;;;;;;;5.00;52.00;;;;;;5113140;28;20007;-73
2021/03/09 01:40:00;;;;;;;;;;;5.00;52.30;;;;;;5113084;28;20016;-73
2021/03/09 01:42:26;;;;;;;;;;;5.00;52.10;;;;;;5113470;28;20018;-73
2021/03/09 01:44:53;;;;;;;;;;;5.00;52.20;;;;;;5113121;28;20003;-73
2021/03/09 01:47:19;;;;;;;;;;;5.00;52.30;;;;;;5112546;28;20002;-73
2021/03/09 01:49:46;;;;;;;;;;;5.10;52.10;;;;;;5113290;28;20023;-73
2021/03/09 01:52:12;;;;;;;;;;;5.10;51.90;;;;;;5111691;28;20018;-74
2021/03/09 01:54:40;;;;;;;;;;;5.00;51.80;;;;;;5113234;28;19959;-73
2021/03/09 01:57:07;;;;;;;;;;;5.10;51.80;;;;;;5112608;28;20320;-73
2021/03/09 01:59:33;;;;;;;;;;;5.10;51.90;;;;;;5113128;28;20018;-73
2021/03/09 02:02:00;;;;;;;;;;;5.10;51.80;;;;;;5112598;28;19935;-73
2021/03/09 02:04:26;;;;;;;;;;;5.10;51.80;;;;;;5113100;28;20019;-73
2021/03/09 02:06:53;;;;;;;;;;;5.10;52.00;;;;;;5112863;28;20297;-73
2021/03/09 02:09:20;;;;;;;;;;;5.10;51.80;;;;;;5112824;28;20594;-73
2021/03/09 02:11:48;;;;;;;;;;;5.10;51.70;;;;;;5112907;28;20014;-73
2021/03/09 02:14:18;;;;;;;;;;;5.10;51.50;;;;;;5112303;28;20011;-73
2021/03/09 02:16:47;;;;;;;;;;;5.10;51.60;;;;;;5113016;28;20006;-73
2021/03/09 02:19:30;;;;;;;;;;;5.10;51.50;;;;;;5111788;28;19924;-72
2021/03/09 02:22:03;;;;;;;;;;;5.00;51.30;;;;;;5111667;28;19999;-73
2021/03/09 02:24:36;;;;;;;;;;;5.00;51.40;;;;;;5111474;28;20319;-73
2021/03/09 02:27:27;;;;;;;;;;;5.00;51.50;;;;;;5112821;28;19924;-73
2021/03/09 02:30:06;;;;;;;;;;;5.00;51.20;;;;;;5112904;28;20011;-73
2021/03/09 02:32:36;;;;;;;;;;;4.90;51.30;;;;;;5112501;28;19960;-73
2021/03/09 02:35:02;;;;;;;;;;;4.80;51.40;;;;;;5115319;28;19951;-73
2021/03/09 02:37:33;;;;;;;;;;;4.80;51.40;;;;;;5116180;28;20006;-73
2021/03/09 02:39:59;;;;;;;;;;;4.80;51.60;;;;;;5116266;28;20038;-72
2021/03/09 02:42:26;;;;;;;;;;;4.80;51.40;;;;;;5116259;28;20007;-73
2021/03/09 02:44:55;;;;;;;;;;;4.80;51.50;;;;;;5116033;28;20011;-73
2021/03/09 02:47:22;;;;;;;;;;;4.70;51.40;;;;;;5116320;28;20014;-72
2021/03/09 02:49:50;;;;;;;;;;;4.70;51.60;;;;;;5116140;28;20011;-73
2021/03/09 02:52:20;;;;;;;;;;;4.70;51.60;;;;;;5116233;28;19963;-73
2021/03/09 02:54:47;;;;;;;;;;;4.70;51.90;;;;;;5116623;28;20006;-73
2021/03/09 02:57:14;;;;;;;;;;;4.60;51.80;;;;;;5116006;28;21140;-73
2021/03/09 02:59:40;;;;;;;;;;;4.70;52.00;;;;;;5116312;28;20003;-73
2021/03/09 03:02:07;;;;;;;;;;;4.70;52.10;;;;;;5115727;28;20386;-72
2021/03/09 03:04:34;;;;;;;;;;;4.70;52.10;;;;;;5116002;28;19983;-73
2021/03/09 03:07:01;;;;;;;;;;;4.70;52.20;;;;;;5115598;28;20006;-73
2021/03/09 03:09:27;;;;;;;;;;;4.70;52.10;;;;;;5115822;28;20026;-72
2021/03/09 03:11:54;;;;;;;;;;;4.70;52.20;;;;;;5115458;28;20003;-72
2021/03/09 03:14:21;;;;;;;;;;;4.70;52.40;;;;;;5116135;28;19981;-73
2021/03/09 03:16:48;;;;;;;;;;;4.70;52.40;;;;;;5116115;28;20330;-73
2021/03/09 03:19:15;;;;;;;;;;;4.60;52.20;;;;;;5115377;28;20068;-73
2021/03/09 03:21:44;;;;;;;;;;;4.60;52.40;;;;;;5115800;28;19999;-73
2021/03/09 03:24:10;;;;;;;;;;;4.50;52.10;;;;;;5115391;28;20018;-73
2021/03/09 03:26:38;;;;;;;;;;;4.50;52.30;;;;;;5115906;28;20080;-73
2021/03/09 03:29:05;;;;;;;;;;;4.60;52.50;;;;;;5115244;28;20011;-73
2021/03/09 03:31:31;;;;;;;;;;;4.50;52.50;;;;;;5115830;28;20006;-73
2021/03/09 03:33:57;;;;;;;;;;;4.50;52.30;;;;;;5115251;28;20003;-73
2021/03/09 03:36:23;;;;;;;;;;;4.50;52.30;;;;;;5115410;28;19999;-72
2021/03/09 03:38:51;;;;;;;;;;;4.50;52.50;;;;;;5115604;28;20014;-73
2021/03/09 03:41:17;;;;;;;;;;;4.40;52.40;;;;;;5115135;28;20027;-73
2021/03/09 03:43:43;;;;;;;;;;;4.40;52.60;;;;;;5115407;28;19982;-73
2021/03/09 03:46:10;;;;;;;;;;;4.40;52.80;;;;;;5113519;28;20022;-73
2021/03/09 03:48:37;;;;;;;;;;;4.40;52.70;;;;;;5115123;28;19959;-73
2021/03/09 03:51:05;;;;;;;;;;;4.40;52.60;;;;;;5114810;28;20409;-73
2021/03/09 03:53:34;;;;;;;;;;;4.40;52.80;;;;;;5115348;28;19970;-73
2021/03/09 03:56:06;;;;;;;;;;;4.40;52.80;;;;;;5114517;28;20007;-73
2021/03/09 03:58:34;;;;;;;;;;;4.40;52.70;;;;;;5115116;28;20007;-73
2021/03/09 04:01:00;;;;;;;;;;;4.30;52.80;;;;;;5114633;28;20357;-73
2021/03/09 04:03:28;;;;;;;;;;;4.30;52.70;;;;;;5114791;28;20011;-73
2021/03/09 04:05:55;;;;;;;;;;;4.30;52.80;;;;;;5114505;28;20014;-73
2021/03/09 04:08:22;;;;;;;;;;;4.30;53.00;;;;;;5114736;28;20027;-73
2021/03/09 04:10:50;;;;;;;;;;;4.30;53.10;;;;;;5114875;28;20381;-73
2021/03/09 04:13:17;;;;;;;;;;;4.40;53.30;;;;;;5114185;28;20026;-72
2021/03/09 04:15:44;;;;;;;;;;;4.40;53.60;;;;;;5114819;28;20421;-72
2021/03/09 04:18:12;;;;;;;;;;;4.40;53.50;;;;;;5114295;28;20380;-72
2021/03/09 04:20:39;;;;;;;;;;;4.40;53.30;;;;;;5114815;28;20015;-72
2021/03/09 04:23:06;;;;;;;;;;;4.40;53.10;;;;;;5113966;28;20030;-72
2021/03/09 04:25:33;;;;;;;;;;;4.40;53.00;;;;;;5114762;28;20011;-72
2021/03/09 04:27:59;;;;;;;;;;;4.50;53.10;;;;;;5114104;28;20003;-73
2021/03/09 04:30:26;;;;;;;;;;;4.50;53.10;;;;;;5114680;28;20122;-73
2021/03/09 04:32:53;;;;;;;;;;;4.50;53.30;;;;;;5114498;28;20010;-73
2021/03/09 04:35:19;;;;;;;;;;;4.50;53.10;;;;;;5113880;28;20010;-73
2021/03/09 04:37:46;;;;;;;;;;;4.50;53.00;;;;;;5114245;28;20014;-72
2021/03/09 04:40:13;;;;;;;;;;;4.50;53.00;;;;;;5113871;28;20354;-72
2021/03/09 04:42:40;;;;;;;;;;;4.50;52.90;;;;;;5114205;28;20057;-73
2021/03/09 04:45:07;;;;;;;;;;;4.50;52.70;;;;;;5113645;28;20015;-73
2021/03/09 04:47:34;;;;;;;;;;;4.50;52.90;;;;;;5114238;28;20341;-73
2021/03/09 04:50:00;;;;;;;;;;;4.50;53.00;;;;;;5113546;28;20034;-73
2021/03/09 04:52:27;;;;;;;;;;;4.50;52.90;;;;;;5113723;28;19955;-73
2021/03/09 04:54:54;;;;;;;;;;;4.50;52.90;;;;;;5114081;28;19927;-74
2021/03/09 04:57:21;;;;;;;;;;;4.50;53.00;;;;;;5112895;28;20038;-73
2021/03/09 04:59:47;;;;;;;;;;;4.50;52.90;;;;;;5113997;28;20422;-73
2021/03/09 05:02:13;;;;;;;;;;;4.50;52.90;;;;;;5113256;28;19998;-73
2021/03/09 05:04:40;;;;;;;;;;;4.50;53.00;;;;;;5113804;28;20010;-73
2021/03/09 05:07:07;;;;;;;;;;;4.50;52.90;;;;;;5113305;28;20510;-73
2021/03/09 05:09:33;;;;;;;;;;;4.50;52.90;;;;;;5113795;28;19966;-74
2021/03/09 05:11:59;;;;;;;;;;;4.60;53.00;;;;;;5113309;28;20034;-74
2021/03/09 05:14:25;;;;;;;;;;;4.60;52.90;;;;;;5113844;28;20307;-74
2021/03/09 05:16:52;;;;;;;;;;;4.50;52.80;;;;;;5113761;28;20023;-72
2021/03/09 05:19:18;;;;;;;;;;;4.50;52.80;;;;;;5113101;28;20003;-72
2021/03/09 05:21:45;;;;;;;;;;;4.50;52.90;;;;;;5113791;28;20327;-73
2021/03/09 05:24:11;;;;;;;;;;;4.60;53.10;;;;;;5112940;28;20361;-74
2021/03/09 05:26:37;;;;;;;;;;;4.60;52.80;;;;;;5113519;28;19971;-72
2021/03/09 05:29:04;;;;;;;;;;;4.60;52.70;;;;;;5113265;28;19973;-72
2021/03/09 05:31:30;;;;;;;;;;;4.50;53.10;;;;;;5113574;28;20022;-73
2021/03/09 05:33:56;;;;;;;;;;;4.50;53.10;;;;;;5113613;28;20002;-73
2021/03/09 05:36:22;;;;;;;;;;;4.50;53.00;;;;;;5112423;28;19959;-73
2021/03/09 05:38:49;;;;;;;;;;;4.50;52.80;;;;;;5113386;28;20185;-72
2021/03/09 05:41:16;;;;;;;;;;;4.50;52.80;;;;;;5112821;28;20015;-73
2021/03/09 05:43:42;;;;;;;;;;;4.50;52.90;;;;;;5113272;28;20002;-74
2021/03/09 05:46:09;;;;;;;;;;;4.50;52.90;;;;;;5112773;28;20014;-73
2021/03/09 05:48:37;;;;;;;;;;;4.40;53.00;;;;;;5113199;28;19978;-73
2021/03/09 05:51:03;;;;;;;;;;;4.40;53.00;;;;;;5112555;28;19986;-73
2021/03/09 05:53:30;;;;;;;;;;;4.40;53.10;;;;;;5113102;28;20015;-73
2021/03/09 05:55:57;;;;;;;;;;;4.40;53.20;;;;;;5113321;28;19959;-74
2021/03/09 05:58:23;;;;;;;;;;;4.50;53.30;;;;;;5112472;28;19971;-74
2021/03/09 06:00:49;;;;;;;;;;;4.50;53.30;;;;;;5113306;28;20081;-73
2021/03/09 06:03:15;;;;;;;;;;;4.50;53.30;;;;;;5112446;28;19959;-73
2021/03/09 06:05:42;;;;;;;;;;;4.50;53.30;;;;;;5112887;28;20010;-73
2021/03/09 06:08:08;;;;;;;;;;;4.50;53.30;;;;;;5112790;28;19943;-73
2021/03/09 06:10:34;;;;;;;;;;;4.50;53.10;;;;;;5117214;28;20001;-73
2021/03/09 06:13:01;;;;;;;;;;;4.50;53.30;;;;;;5116910;28;20010;-73
2021/03/09 06:15:28;;;;;;;;;;;4.50;53.30;;;;;;5116678;28;20003;-73
2021/03/09 06:17:55;;;;;;;;;;;4.50;53.30;;;;;;5117106;28;19959;-73
2021/03/09 06:20:25;;;;;;;;;;;4.50;53.40;;;;;;5116487;28;19962;-73
2021/03/09 06:22:52;;;;;;;;;;;4.50;53.40;;;;;;5116654;28;20024;-73
2021/03/09 06:25:19;;;;;;;;;;;4.60;53.50;;;;;;5116341;28;20034;-73
2021/03/09 06:27:45;;;;;;;;;;;4.60;53.60;;;;;;5116927;28;20278;-73
2021/03/09 06:30:14;;;;;;;;;;;4.50;53.40;;;;;;5116406;28;20437;-73
2021/03/09 06:32:41;;;;;;;;;;;4.50;53.70;;;;;;5117008;28;20002;-73
2021/03/09 06:35:24;;;;;;;;;;;4.60;53.90;;;;;;5116452;28;20336;-73
2021/03/09 06:37:51;;;;;;;;;;;4.50;53.30;;;;;;5116933;28;20015;-73
2021/03/09 06:40:17;;;;;;;;;;;4.60;53.60;;;;;;5116087;28;20006;-73
2021/03/09 06:42:43;;;;;;;;;;;4.60;53.50;;;;;;5116704;28;20030;-74
2021/03/09 06:45:10;;;;;;;;;;;4.60;53.30;;;;;;5116306;28;20007;-72
2021/03/09 06:47:39;;;;;;;;;;;4.60;53.30;;;;;;5116604;28;20014;-73
2021/03/09 06:50:07;;;;;;;;;;;4.70;53.60;;;;;;5116504;28;20011;-73
2021/03/09 06:52:33;;;;;;;;;;;4.70;54.00;;;;;;5116006;28;20011;-73
2021/03/09 06:54:59;;;;;;;;;;;4.70;54.10;;;;;;5116334;28;20014;-73
2021/03/09 06:57:26;;;;;;;;;;;4.70;53.70;;;;;;5115699;28;19931;-73
2021/03/09 06:59:53;;;;;;;;;;;4.70;53.70;;;;;;5116580;28;20064;-72
2021/03/09 07:02:20;;;;;;;;;;;4.80;53.80;;;;;;5115418;28;19932;-73
2021/03/09 07:04:48;;;;;;;;;;;4.80;53.60;;;;;;5116284;28;20014;-73
2021/03/09 07:07:15;;;;;;;;;;;4.80;53.80;;;;;;5115739;28;20003;-73
2021/03/09 07:09:52;;;;;;;;;;;4.90;53.80;;;;;;5116221;28;20015;-73
2021/03/09 07:12:18;;;;;;;;;;;4.90;53.50;;;;;;5115175;28;19930;-73
2021/03/09 07:14:46;;;;;;;;;;;5.00;53.70;;;;;;5116221;28;20011;-73
2021/03/09 07:17:13;;;;;;;;;;;5.00;53.90;;;;;;5115506;28;20401;-73
2021/03/09 07:19:41;;;;;;;;;;;5.10;53.80;;;;;;5115565;28;20006;-73
2021/03/09 07:22:09;;;;;;;;;;;5.10;53.70;;;;;;5115905;28;20083;-73
2021/03/09 07:24:39;;;;;;;;;;;5.10;53.90;;;;;;5115547;28;20682;-73
2021/03/09 07:27:11;;;;;;;;;;;5.10;54.00;;;;;;5115538;28;19947;-73
2021/03/09 07:29:37;;;;;;;;;;;5.20;53.80;;;;;;5115830;28;19924;-74
2021/03/09 07:32:06;;;;;;;;;;;5.20;53.70;;;;;;5115730;28;19930;-73
2021/03/09 07:34:34;;;;;;;;;;;5.30;53.40;;;;;;5115106;28;19942;-74
2021/03/09 07:37:01;;;;;;;;;;;5.30;53.10;;;;;;5115475;28;19973;-72
2021/03/09 07:39:28;;;;;;;;;;;5.30;53.30;;;;;;5115253;28;19924;-73
2021/03/09 07:41:55;;;;;;;;;;;5.30;53.00;;;;;;5115815;28;19923;-73
2021/03/09 07:44:21;;;;;;;;;;;5.30;52.60;;;;;;5115006;28;20315;-73
2021/03/09 07:46:48;;;;;;;;;;;5.30;52.80;;;;;;5115400;28;19934;-73
2021/03/09 07:49:18;;;;;;;;;;;5.30;53.00;;;;;;5114861;28;20006;-73
2021/03/09 07:52:03;;;;;;;;;;;5.40;53.10;;;;;;5115312;28;19923;-73
2021/03/09 07:54:30;;;;;;;;;;;5.50;53.30;;;;;;5114567;28;19938;-73
2021/03/09 07:57:11;;;;;;;;;;;5.50;52.80;;;;;;5115252;28;19924;-73
2021/03/09 07:59:37;;;;;;;;;;;5.40;52.60;;;;;;5093659;28;19935;-73
2021/03/09 08:02:03;;;;;;;;;;;5.50;52.80;;;;;;5113234;28;19924;-73
2021/03/09 08:04:30;;;;;;;;;;;5.40;52.80;;;;;;5114681;28;20265;-73
2021/03/09 08:06:56;;;;;;;;;;;5.50;52.80;;;;;;5114954;28;20299;-73
2021/03/09 08:09:38;;;;;;;;;;;5.60;52.80;;;;;;5114651;28;20346;-73
2021/03/09 08:12:22;;;;;;;;;;;5.60;52.90;;;;;;5115045;28;19924;-73
2021/03/09 08:14:48;;;;;;;;;;;5.70;53.00;;;;;;5114784;28;19928;-72
2021/03/09 08:17:25;;;;;;;;;;;5.70;52.70;;;;;;5114818;28;19924;-73
2021/03/09 08:19:51;;;;;;;;;;;5.80;52.60;;;;;;5114576;28;20725;-73
2021/03/09 08:22:35;;;;;;;;;;;5.80;52.60;;;;;;5114672;28;20247;-73
2021/03/09 08:25:03;;;;;;;;;;;5.90;52.70;;;;;;5114728;28;20354;-73
2021/03/09 08:27:32;;;;;;;;;;;6.00;52.70;;;;;;5114629;28;19956;-73
2021/03/09 08:30:13;;;;;;;;;;;6.10;52.80;;;;;;5114119;28;19993;-73
2021/03/09 08:32:40;;;;;;;;;;;6.10;52.60;;;;;;5113029;28;19928;-73
2021/03/09 08:35:27;;;;;;;;;;;6.20;52.00;;;;;;5111442;28;20289;-73
2021/03/09 08:37:54;;;;;;;;;;;6.20;51.70;;;;;;5105346;28;20387;-73
2021/03/09 08:40:22;;;;;;;;;;;6.20;51.40;;;;;;5100187;28;19927;-71
2021/03/09 08:43:15;;;;;;;;;;;6.30;51.30;;;;;;5103164;28;19928;-72
2021/03/09 08:45:42;;;;;;;;;;;6.30;50.90;;;;;;5054204;28;19924;-73
2021/03/09 08:48:09;;;;;;;;;;;6.30;51.10;;;;;;5113368;28;20319;-73
2021/03/09 08:50:39;;;;;;;;;;;6.30;51.90;;;;;;5115740;27;19934;-73
2021/03/09 08:53:05;;;;;;;;;;;6.30;51.50;;;;;;5107673;28;20933;-73
2021/03/09 08:55:32;;;;;;;;;;;6.40;51.70;;;;;;5114128;27;19924;-73
2021/03/09 08:58:05;;;;;;;;;;;6.50;51.60;;;;;;5108246;28;20362;-73
2021/03/09 09:00:31;;;;;;;;;;;6.50;51.40;;;;;;5097077;27;19927;-73
2021/03/09 09:02:58;;;;;;;;;;;6.50;50.90;;;;;;5113310;28;19934;-74
2021/03/09 09:05:28;;;;;;;;;;;6.60;50.90;;;;;;5112064;27;20010;-73
2021/03/09 09:07:54;;;;;;;;;;;6.60;50.50;;;;;;5113223;28;19934;-72
2021/03/09 09:10:22;;;;;;;;;;;6.60;50.80;;;;;;5115408;27;20273;-72
2021/03/09 09:12:49;;;;;;;;;;;6.70;50.80;;;;;;5113452;28;19930;-72
2021/03/09 09:15:17;;;;;;;;;;;6.80;50.30;;;;;;5112057;27;19923;-72
2021/03/09 09:17:45;;;;;;;;;;;6.80;50.10;;;;;;5112925;28;20010;-73
2021/03/09 09:20:12;;;;;;;;;;;6.80;50.40;;;;;;5114469;27;19946;-73
2021/03/09 09:22:39;;;;;;;;;;;6.90;49.90;;;;;;5113426;28;20380;-73
2021/03/09 09:25:07;;;;;;;;;;;7.00;50.10;;;;;;5112763;28;20262;-74
2021/03/09 09:27:41;;;;;;;;;;;7.00;50.50;;;;;;5112971;28;20358;-74
2021/03/09 09:30:09;;;;;;;;;;;7.10;49.60;;;;;;5111397;27;19930;-73
2021/03/09 09:32:43;;;;;;;;;;;7.10;49.80;;;;;;5113189;28;20010;-73
2021/03/09 09:35:09;;;;;;;;;;;7.20;49.70;;;;;;5111876;28;19923;-73
2021/03/09 09:37:38;;;;;;;;;;;7.30;49.10;;;;;;5117743;27;19980;-73
2021/03/09 09:40:04;;;;;;;;;;;7.30;49.60;;;;;;5116304;27;20023;-73
2021/03/09 09:42:31;;;;;;;;;;;7.30;48.00;;;;;;5113145;28;19956;-73
2021/03/09 09:44:57;;;;;;;;;;;7.40;48.10;;;;;;5111455;28;19923;-73
2021/03/09 09:47:24;;;;;;;;;;;7.40;48.00;;;;;;5125285;27;20342;-73
2021/03/09 09:49:50;;;;;;;;;;;7.40;47.90;;;;;;5113198;28;19924;-73
2021/03/09 09:52:18;;;;;;;;;;;7.50;48.00;;;;;;5112702;28;19924;-74
2021/03/09 09:54:51;;;;;;;;;;;7.60;47.10;;;;;;5112846;28;19931;-74
2021/03/09 09:57:17;;;;;;;;;;;7.60;47.20;;;;;;5100372;28;19924;-72
2021/03/09 09:59:44;;;;;;;;;;;7.70;47.10;;;;;;5113115;28;19924;-72
2021/03/09 10:02:14;;;;;;;;;;;7.70;46.50;;;;;;5104512;28;19924;-73
2021/03/09 10:04:41;;;;;;;;;;;7.70;45.60;;;;;;5098773;28;19950;-73
2021/03/09 10:07:13;;;;;;;;;;;7.80;45.90;;;;;;5092169;28;19999;-73
2021/03/09 10:09:39;;;;;;;;;;;7.90;46.10;;;;;;5107865;28;19932;-73
2021/03/09 10:12:06;;;;;;;;;;;8.00;46.40;;;;;;5115674;28;20011;-73
2021/03/09 10:14:33;;;;;;;;;;;8.10;45.80;;;;;;5111955;28;19938;-73
2021/03/09 10:16:59;;;;;;;;;;;8.10;45.20;;;;;;5112588;28;19942;-73
2021/03/09 10:19:34;;;;;;;;;;;8.10;45.00;;;;;;5113646;28;19984;-73
2021/03/09 10:22:01;;;;;;;;;;;8.10;44.80;;;;;;5105207;28;19948;-73
2021/03/09 10:24:29;;;;;;;;;;;8.10;44.90;;;;;;5112694;28;19934;-73
2021/03/09 10:26:56;;;;;;;;;;;8.10;45.20;;;;;;5116366;28;19923;-73
2021/03/09 10:29:22;;;;;;;;;;;8.20;45.40;;;;;;5112187;28;19928;-73
2021/03/09 10:31:50;;;;;;;;;;;8.20;44.90;;;;;;5111999;28;19935;-73
2021/03/09 10:34:17;;;;;;;;;;;8.20;44.60;;;;;;5111939;28;20395;-73
2021/03/09 10:36:50;;;;;;;;;;;8.20;44.30;;;;;;5111796;28;19924;-73
2021/03/09 10:39:17;;;;;;;;;;;8.30;44.70;;;;;;5112226;28;19938;-74
2021/03/09 10:41:43;;;;;;;;;;;8.30;44.50;;;;;;5110203;28;19931;-73
2021/03/09 10:44:24;;;;;;;;;;;8.40;44.60;;;;;;5130917;28;20314;-73
2021/03/09 10:46:51;;;;;;;;;;;8.50;44.40;;;;;;5115122;28;19972;-73
2021/03/09 10:49:17;;;;;;;;;;;8.50;43.90;;;;;;5110942;28;20239;-73
2021/03/09 10:51:43;;;;;;;;;;;8.60;44.00;;;;;;5112097;28;19923;-73
2021/03/09 10:54:09;;;;;;;;;;;8.70;44.30;;;;;;5111443;28;19927;-73
2021/03/09 10:56:39;;;;;;;;;;;8.70;44.60;;;;;;5114502;28;19930;-73
2021/03/09 10:59:05;;;;;;;;;;;8.90;44.80;;;;;;5115596;27;19930;-74
2021/03/09 11:01:31;;;;;;;;;;;9.00;44.80;;;;;;5115529;27;19924;-73
2021/03/09 11:03:57;;;;;;;;;;;9.00;43.80;;;;;;5115054;27;19934;-73
2021/03/09 11:06:24;;;;;;;;;;;9.10;43.90;;;;;;5115703;28;20350;-73
2021/03/09 11:08:50;;;;;;;;;;;9.10;43.40;;;;;;5114805;28;19976;-74
2021/03/09 11:11:16;;;;;;;;;;;9.20;42.10;;;;;;5114613;27;19923;-73
2021/03/09 11:13:43;;;;;;;;;;;9.20;42.20;;;;;;5115588;27;20368;-72
2021/03/09 11:16:09;;;;;;;;;;;9.30;41.90;;;;;;5117730;27;20372;-73
2021/03/09 11:18:37;;;;;;;;;;;9.40;41.80;;;;;;5114450;27;20295;-73
2021/03/09 11:21:03;;;;;;;;;;;9.40;41.90;;;;;;5115387;28;19943;-73
2021/03/09 11:23:29;;;;;;;;;;;9.60;42.00;;;;;;5114974;27;20261;-72
2021/03/09 11:25:55;;;;;;;;;;;9.60;41.60;;;;;;5115625;28;19924;-72
2021/03/09 11:28:22;;;;;;;;;;;9.60;41.80;;;;;;5115364;27;19924;-73
2021/03/09 11:30:49;;;;;;;;;;;9.70;42.10;;;;;;5095947;28;19977;-72
2021/03/09 11:33:15;;;;;;;;;;;9.70;42.30;;;;;;5108789;27;19923;-73
2021/03/09 11:35:41;;;;;;;;;;;9.70;42.30;;;;;;5113324;28;19934;-73
2021/03/09 11:38:07;;;;;;;;;;;9.80;42.40;;;;;;5113712;27;20361;-73
2021/03/09 11:40:34;;;;;;;;;;;9.80;42.00;;;;;;5117178;27;19923;-73
2021/03/09 11:43:00;;;;;;;;;;;9.80;41.70;;;;;;5117346;27;19927;-72
2021/03/09 11:45:26;;;;;;;;;;;9.80;41.10;;;;;;5112544;27;19977;-73
2021/03/09 11:47:53;;;;;;;;;;;9.70;41.30;;;;;;5117879;27;20269;-73
2021/03/09 11:50:19;;;;;;;;;;;9.80;41.70;;;;;;5131373;27;19927;-72
2021/03/09 11:52:46;;;;;;;;;;;9.80;41.70;;;;;;5114629;28;20299;-73
2021/03/09 11:55:12;;;;;;;;;;;9.80;41.50;;;;;;5114718;27;19923;-73
2021/03/09 11:57:38;;;;;;;;;;;9.90;41.40;;;;;;5113332;28;20255;-73
2021/03/09 12:00:05;;;;;;;;;;;9.90;41.20;;;;;;5114149;28;19924;-70
2021/03/09 12:02:31;;;;;;;;;;;9.90;40.90;;;;;;5109962;27;20089;-71
2021/03/09 12:04:58;;;;;;;;;;;9.90;41.20;;;;;;5103362;28;19928;-73
2021/03/09 12:07:25;;;;;;;;;;;10.00;40.10;;;;;;5116154;27;20350;-72
2021/03/09 12:09:51;;;;;;;;;;;10.00;39.20;;;;;;5114656;28;19927;-67
2021/03/09 12:12:17;;;;;;;;;;;9.90;40.00;;;;;;5112497;28;19924;-70
2021/03/09 12:14:43;;;;;;;;;;;9.90;39.80;;;;;;5114302;28;19961;-69
2021/03/09 12:17:10;;;;;;;;;;;9.90;40.30;;;;;;5106749;27;19924;-68
2021/03/09 12:19:36;;;;;;;;;;;9.90;40.50;;;;;;5109672;28;19938;-71
2021/03/09 12:22:06;;;;;;;;;;;9.90;40.70;;;;;;5113791;28;20010;-64
2021/03/09 12:24:33;;;;;;;;;;;9.90;40.50;;;;;;5114002;27;19928;-64
2021/03/09 12:27:01;;;;;;;;;;;9.90;39.90;;;;;;5113151;27;20365;-64
2021/03/09 12:29:27;;;;;;;;;;;10.00;39.50;;;;;;5109973;28;19931;-64
2021/03/09 12:31:53;;;;;;;;;;;10.00;39.60;;;;;;5112758;28;19924;-64
2021/03/09 12:34:19;;;;;;;;;;;10.00;39.30;;;;;;5109825;28;19927;-64
2021/03/09 12:36:46;;;;;;;;;;;10.10;39.50;;;;;;5111920;28;20364;-64
2021/03/09 12:39:13;;;;;;;;;;;10.10;39.40;;;;;;5113559;28;19981;-64
2021/03/09 12:41:39;;;;;;;;;;;10.10;39.60;;;;;;5120040;27;19931;-64
2021/03/09 12:44:06;;;;;;;;;;;10.20;38.70;;;;;;5113953;28;19995;-64
2021/03/09 12:46:32;;;;;;;;;;;10.10;38.90;;;;;;5110022;28;19932;-63
2021/03/09 12:48:58;;;;;;;;;;;10.10;38.00;;;;;;5101562;28;20282;-64
2021/03/09 12:51:24;;;;;;;;;;;10.10;38.40;;;;;;5111860;28;19928;-64
2021/03/09 12:53:50;;;;;;;;;;;10.10;38.30;;;;;;5105501;28;19929;-71
2021/03/09 12:56:20;;;;;;;;;;;10.10;38.90;;;;;;5103149;27;20007;-71
2021/03/09 12:58:46;;;;;;;;;;;10.10;39.10;;;;;;5111686;28;19928;-70
2021/03/09 13:01:12;;;;;;;;;;;10.00;38.80;;;;;;5115149;27;19923;-74
2021/03/09 13:03:39;;;;;;;;;;;10.10;39.10;;;;;;5113407;27;19924;-72
2021/03/09 13:06:05;;;;;;;;;;;10.00;38.10;;;;;;5112432;28;19924;-72
2021/03/09 13:08:32;;;;;;;;;;;10.00;38.60;;;;;;5110736;27;19967;-72
2021/03/09 13:10:58;;;;;;;;;;;10.00;38.80;;;;;;5113278;28;19927;-73
2021/03/09 13:13:25;;;;;;;;;;;10.00;39.00;;;;;;5103775;28;19923;-69
2021/03/09 13:15:52;;;;;;;;;;;10.10;39.10;;;;;;5114687;27;20366;-68
2021/03/09 13:18:18;;;;;;;;;;;10.10;38.60;;;;;;5112701;28;20358;-72
2021/03/09 13:20:44;;;;;;;;;;;10.10;38.50;;;;;;5114384;27;19935;-70
2021/03/09 13:23:10;;;;;;;;;;;10.10;38.70;;;;;;5116561;27;20011;-69
2021/03/09 13:25:36;;;;;;;;;;;10.20;38.80;;;;;;5112256;28;20405;-72
2021/03/09 13:28:03;;;;;;;;;;;10.20;38.60;;;;;;5112709;28;20270;-74
2021/03/09 13:30:30;;;;;;;;;;;10.20;38.90;;;;;;5111419;28;20373;-72
2021/03/09 13:32:56;;;;;;;;;;;10.20;38.80;;;;;;5112690;28;20322;-70
2021/03/09 13:35:23;;;;;;;;;;;10.20;38.30;;;;;;5110981;28;19950;-68
2021/03/09 13:37:49;;;;;;;;;;;10.20;37.90;;;;;;5112176;27;19932;-68
2021/03/09 13:40:16;;;;;;;;;;;10.20;38.00;;;;;;5116258;27;19923;-71
2021/03/09 13:42:42;;;;;;;;;;;10.20;38.10;;;;;;5113449;28;19924;-69
2021/03/09 13:45:10;;;;;;;;;;;10.20;38.40;;;;;;5113027;28;20574;-83
2021/03/09 13:47:37;;;;;;;;;;;10.30;38.40;;;;;;5110784;28;20014;-70
2021/03/09 13:50:04;;;;;;;;;;;10.30;38.30;;;;;;5108744;28;19923;-71
2021/03/09 13:52:32;;;;;;;;;;;10.30;37.30;;;;;;5110302;28;19927;-71
2021/03/09 13:54:58;;;;;;;;;;;10.30;37.50;;;;;;5117673;27;19924;-68
2021/03/09 13:57:24;;;;;;;;;;;10.40;37.40;;;;;;5113250;28;19930;-72
2021/03/09 13:59:50;;;;;;;;;;;10.40;36.50;;;;;;5112823;28;19984;-73
2021/03/09 14:02:17;;;;;;;;;;;10.40;36.90;;;;;;5102853;28;20011;-68
2021/03/09 14:04:44;;;;;;;;;;;10.50;36.50;;;;;;5111463;28;20292;-72
2021/03/09 14:07:11;;;;;;;;;;;10.50;36.20;;;;;;5103859;28;19928;-69
2021/03/09 14:09:38;;;;;;;;;;;10.50;35.70;;;;;;5109217;28;20414;-69
2021/03/09 14:12:05;;;;;;;;;;;10.50;35.60;;;;;;5124358;27;19960;-68
2021/03/09 14:14:31;;;;;;;;;;;10.50;35.80;;;;;;5114923;28;19934;-67
2021/03/09 14:17:03;;;;;;;;;;;10.50;35.40;;;;;;5109545;28;19930;-68
2021/03/09 14:19:29;;;;;;;;;;;10.50;34.70;;;;;;5098610;28;19927;-66
2021/03/09 14:21:56;;;;;;;;;;;10.50;34.90;;;;;;5107770;28;19924;-67
2021/03/09 14:24:22;;;;;;;;;;;10.50;35.10;;;;;;5109514;28;19976;-70
2021/03/09 14:26:49;;;;;;;;;;;10.50;35.10;;;;;;5110043;28;20324;-74
2021/03/09 14:29:16;;;;;;;;;;;10.40;35.40;;;;;;5119238;28;20025;-72
2021/03/09 14:31:42;;;;;;;;;;;10.40;34.70;;;;;;5115106;28;20748;-69